Portada
METAR-TAF:

METAR-TAF

Aeroports :

Aeroport Internacional de Xangai-Pudong

Xangai-Pudong, Xina

latitud: 31-07N, longitud: 121-46E, altitud: 4 m

Observació

L'informe es va fer fa 38 minuts, a les 15:00 UTC
Vent 8 kt del Est
Temperatura 21°C
Humitat 88%
Pressió 1012 hPa
Visibilitat 10 km o més
Escasses núvols a una alçada de 1300 ft
pluja

METAR: ZSPD 251500Z 09004MPS 9999 -RA FEW013 21/19 Q1012 NOSIG

Hora: 23:38 (15:38 UTC)

Pronòstic

L'informe es va fer fa 6 hores i 27 minuts, a les 09:11 UTC
Pronòstic vàlid del 25 a les 12 UTC al 26 a les 12 UTC
Vent 8 kt del Est
Visibilitat: 6000 m
Cel ennuvolat a una alçada de 1500 ft
Evolucionant progressivament
l' 25 a les 14 UTC al 25 a les 15 UTC
Cel ennuvolat a una alçada de 1100 ft

TAF: ZSPD 250911Z 2512/2612 09004MPS 6000 BKN015 TX26/2606Z TN20/2521Z BECMG 2514/2515 BKN011

Observacions i pronòstics meteorològics de més de 4000 aeroports (METAR i TAF).

Les estacions disponibles són els punts grocs i vermells al mapa.

Posi el ratolí al punt desitjat per veure el nom de l'estació.

Feu clic per veure les observacions i els pronòstics meteorològics.

Per canviar el mapa: feu clic els botons verds amb una creu de color negre per apropar; al botó verd amb un guió per allunyar la imatge; o en les fletxes verdes per a mapes adjacents.


METAR-TAF: